Hettinger, North Dakota
Current Conditions -  °F | °C
As of 3:53 PM on Thursday 18 Dec 2014 (Local Time) from KHEI Reporting Station
Clear Clear  
Wind Chill: 24°   Ceiling: Unl
Heat Index: 29°   Visibility: 10mi
Dew Point: 25°   Wind: 5mph
Humidity: 85%   Direction: 200°SSW
Pressure: 29.96"   Gusts: NA
Location:  46°N, 102.64°W
Report Text: KHEI 182253Z AUTO 20004KT 10SM CLR M02/M04 A2996 RMK AO2 SLP180 T10171039
Loading
Personal Weather Stations






























Interactive Weather Map New forecast layout! Learn more

10-Day Weather Forecast

Advertisements
Track Severe Weather on mobile